Hovedside
METAR-TAF:

METAR-TAF

Lufthavner :

Ljungbyhed, Sverige

breddegrad: 56-04N, lengdegrad: 013-12E, høyde over havet: 43 m

Gjeldene værobservasjon

Denne rapporten ble laget for 13 minutter siden, klokken 21:50 UTC
Vind 3 kt fra Øst
Temperatur 17°C
Luftfuktighet 94%
Trykk 1007 hPa
Sikt: 4100 m
lett regn

METAR: ESTL 182150Z AUTO 10003KT 4100NDV -RA FEW018/// BKN065/// 17/16 Q1007

Tid: 00:03 (22:03 UTC)

Varsel

Denne rapporten ble laget for 10 timer og 57 minutter siden, klokken 11:06 UTC
Varsel gyldig fra 18. klokken 12 UTC til 18. klokken 15 UTC
Vind 8 kt fra Sør-sørvest
Sikt 10 km eller mer
Brutte skyer i en høyde av 3000 ft

TAF: ESTL 181106Z 1812/1815 20008KT 9999 BKN030

Værobservasjoner og værvarsel for over 4000 flyplasser (METAR- og TAF-rapporter).

Tilgjengelige stasjoner er representert av de røde og gule prikkene på kartet.

Hold musepekeren over prikken for å se navnet på stasjonen.

Klikk så for å se værobservasjoner og -varsler.

For å forandre kartet kan du klikke på den grønne knappen med svart kryss for å zoome inn, på den grønne knappen med strek for å zoome ut, eller på de grønne pilene for å se tilstøtende kart.


METAR-TAF: